• Join FlightAware (Why Join?)
  • Login
  • US Flag 
02:55AM EDT


 

Airport Tracker/Info


-or-


 

Live Flight TrackerFlight Track Log ✈ KAP5 ✈ 29-Jun-2013 ✈ KBOS - KMVY

Flight Track Log - Related Links

Times and Time Zones

All times are in EDT time to prevent confusion due to time zone crossing. See the KAP5 flight status page for this flight to view local times or setup timezone preferences in your user account.

Time Position Orientation Groundspeed Altitude Reporting Facility
EDT Latitude Longitude Course Direction KTS MPH feet Rate Location/Type
05:16PM 42.2167 -70.9833 163° South 115 132 4,200  Level KA90
05:17PM 42.2123 -70.9446 163° South  Level Estimated
05:17PM 42.1833 -70.9667 160° South 114 131 4,800  Level KA90
05:18PM 42.1908 -70.9358 163° South  Level Estimated
05:18PM 42.1500 -70.9333 143° Southeast 135 155 4,900  Level KA90
05:18PM 42.1167 -70.9167 160° South 142 163 4,900  Level KA90
05:19PM 42.1693 -70.9270 163° South  Level Estimated
05:20PM 42.1478 -70.9182 163° South  Level Estimated
05:20PM 42.0945 -70.9073 163° South  Level Estimated
05:21PM 42.1263 -70.9094 163° South  Level Estimated
05:27PM 41.9443 -70.8438 163° South  Level Estimated
05:28PM 41.9228 -70.8348 163° South  Level Estimated
05:29PM 41.9014 -70.8258 163° South  Level Estimated
05:30PM 41.8799 -70.8168 163° South  Level Estimated
05:31PM 41.8585 -70.8077 163° South  Level Estimated
05:32PM 41.8370 -70.7987 163° South  Level Estimated
05:33PM 41.8155 -70.7897 163° South  Level Estimated
05:34PM 41.7941 -70.7807 163° South  Level Estimated
05:35PM 41.7726 -70.7717 163° South  Level Estimated
05:36PM 41.7511 -70.7627 163° South  Level Estimated
05:37PM 41.7296 -70.7538 163° South  Level Estimated
05:38PM 41.7082 -70.7448 163° South  Level Estimated
05:39PM 41.6867 -70.7358 163° South  Level Estimated
05:40PM 41.6652 -70.7269 163° South  Level Estimated
05:41PM 41.6438 -70.7179 163° South  Level Estimated
05:42PM 41.6223 -70.7089 163° South  Level Estimated
05:43PM 41.6008 -70.7000 163° South  Level Estimated
05:44PM 41.5794 -70.6910 163° South  Level Estimated
05:45PM 41.5579 -70.6821 163° South  Level Estimated
05:46PM 41.5364 -70.6732 163° South  Level Estimated
05:47PM 41.5149 -70.6643 163° South  Level Estimated
05:48PM 41.4935 -70.6553 163° South  Level Estimated